createdAt,value
2022-10-08T00:02:17.760Z,85.42
2022-10-08T00:04:49.598Z,86.23
2022-10-08T00:07:21.303Z,86.75
2022-10-08T00:09:53.193Z,87.68
2022-10-08T00:12:24.897Z,88.01
2022-10-08T00:14:56.992Z,88.44
2022-10-08T00:17:29.355Z,88.22
2022-10-08T00:20:01.457Z,87.35
2022-10-08T00:22:33.280Z,87.10
2022-10-08T00:25:05.116Z,86.93
2022-10-08T00:27:36.722Z,86.07
2022-10-08T00:30:10.557Z,85.40
2022-10-08T00:32:42.372Z,86.11
2022-10-08T00:35:14.376Z,86.77
2022-10-08T00:37:46.003Z,86.90
2022-10-08T00:40:18.128Z,86.62
2022-10-08T00:42:49.989Z,86.16
2022-10-08T00:45:22.183Z,86.11
2022-10-08T00:47:56.324Z,86.74
2022-10-08T00:50:34.311Z,87.19
2022-10-08T00:53:08.760Z,87.11
2022-10-08T00:55:44.087Z,86.50
2022-10-08T00:58:22.869Z,86.29
2022-10-08T01:00:54.566Z,85.98
2022-10-08T01:03:26.319Z,87.25
2022-10-08T01:06:10.310Z,88.11
2022-10-08T01:08:48.366Z,88.05
2022-10-08T01:11:32.408Z,86.85
2022-10-08T01:14:13.286Z,86.83
2022-10-08T01:16:54.267Z,87.18
2022-10-08T01:19:43.578Z,87.26
2022-10-08T01:22:27.575Z,87.96
2022-10-08T01:25:20.851Z,87.95
2022-10-08T01:28:01.753Z,88.48
2022-10-08T01:30:36.487Z,89.42
2022-10-08T01:33:15.081Z,89.60
2022-10-08T01:35:50.639Z,90.11
2022-10-08T01:38:25.127Z,90.03
2022-10-08T01:41:00.306Z,88.68
2022-10-08T01:43:36.500Z,87.15
2022-10-08T01:46:13.086Z,86.62
2022-10-08T01:48:48.321Z,87.47
2022-10-08T01:51:23.942Z,87.46
2022-10-08T01:53:56.043Z,87.07
2022-10-08T01:56:33.055Z,86.71
2022-10-08T01:59:09.293Z,86.45
2022-10-08T02:01:49.924Z,86.55
2022-10-08T02:04:34.677Z,86.38
2022-10-08T02:07:10.339Z,86.74
2022-10-08T02:09:44.797Z,87.05
2022-10-08T02:12:16.556Z,86.65
2022-10-08T02:14:51.997Z,86.93
2022-10-08T02:17:30.739Z,86.63
2022-10-08T02:20:08.486Z,86.74
2022-10-08T02:22:45.877Z,88.52
2022-10-08T02:25:25.797Z,89.12
2022-10-08T02:28:10.327Z,88.70
2022-10-08T02:30:47.917Z,89.33
2022-10-08T02:33:27.259Z,89.36
2022-10-08T02:36:01.462Z,88.54
2022-10-08T02:38:38.456Z,88.15
2022-10-08T02:41:12.663Z,88.75
2022-10-08T02:43:48.137Z,89.53
2022-10-08T02:46:22.471Z,89.01
2022-10-08T02:48:59.473Z,89.05
2022-10-08T02:51:32.241Z,89.20
2022-10-08T02:54:05.077Z,89.08
2022-10-08T02:56:41.622Z,89.34
2022-10-08T02:59:13.991Z,89.63
2022-10-08T03:01:50.631Z,88.86
2022-10-08T03:04:28.640Z,88.96
2022-10-08T03:07:01.376Z,89.31
2022-10-08T03:09:37.568Z,89.22
2022-10-08T03:12:09.860Z,90.40
2022-10-08T03:14:44.577Z,90.37
2022-10-08T03:17:20.101Z,90.30
2022-10-08T03:19:51.967Z,90.23
2022-10-08T03:22:24.192Z,91.50
2022-10-08T03:24:56.914Z,92.90
2022-10-08T03:27:29.113Z,93.49
2022-10-08T03:30:00.788Z,93.16
2022-10-08T03:32:32.629Z,92.02
2022-10-08T03:35:04.360Z,92.70
2022-10-08T03:37:36.069Z,93.29
2022-10-08T03:40:10.702Z,92.52
2022-10-08T03:42:42.393Z,93.14
2022-10-08T03:45:14.158Z,92.07
2022-10-08T03:47:50.665Z,91.41
2022-10-08T03:50:23.403Z,91.66
2022-10-08T03:52:53.486Z,91.02
2022-10-08T03:55:25.421Z,91.62
2022-10-08T03:57:57.213Z,93.23
2022-10-08T04:00:29.242Z,93.43
2022-10-08T04:03:00.935Z,93.52
2022-10-08T04:05:32.811Z,94.69
2022-10-08T04:08:04.644Z,93.87
2022-10-08T04:10:40.210Z,92.80
2022-10-08T04:13:11.907Z,92.52
2022-10-08T04:15:43.781Z,93.58
2022-10-08T04:18:15.950Z,94.73
2022-10-08T04:20:47.681Z,94.42
2022-10-08T04:23:19.514Z,93.73
2022-10-08T04:25:55.039Z,93.32
2022-10-08T04:28:26.818Z,94.00
2022-10-08T04:31:00.626Z,94.76
2022-10-08T04:33:34.697Z,94.65
2022-10-08T04:36:10.713Z,94.85
2022-10-08T04:38:44.384Z,95.30
2022-10-08T04:41:18.049Z,94.05
2022-10-08T04:43:50.467Z,94.45
2022-10-08T04:46:23.515Z,94.40
2022-10-08T04:48:56.432Z,94.23
2022-10-08T04:51:29.283Z,93.80
2022-10-08T04:54:01.729Z,94.66
2022-10-08T04:56:36.562Z,94.37
2022-10-08T04:59:08.502Z,93.61
2022-10-08T05:01:40.403Z,93.92
2022-10-08T05:04:12.126Z,95.50
2022-10-08T05:06:43.809Z,95.59
2022-10-08T05:09:15.516Z,96.38
2022-10-08T05:11:47.287Z,95.76
2022-10-08T05:14:19.029Z,95.96
2022-10-08T05:16:50.715Z,95.39
2022-10-08T05:19:22.321Z,95.92
2022-10-08T05:21:54.357Z,96.89
2022-10-08T05:24:26.371Z,97.02
2022-10-08T05:26:59.189Z,96.60
2022-10-08T05:29:32.632Z,97.05
2022-10-08T05:32:04.797Z,97.36
2022-10-08T05:34:36.539Z,96.39
2022-10-08T05:37:08.545Z,95.54
2022-10-08T05:39:40.463Z,95.62
2022-10-08T05:42:12.711Z,97.01
2022-10-08T05:44:45.555Z,97.40
2022-10-08T05:47:17.384Z,96.30
2022-10-08T05:49:49.034Z,95.43
2022-10-08T05:52:21.166Z,94.99
2022-10-08T05:54:52.859Z,94.71
2022-10-08T05:57:24.793Z,94.73
2022-10-08T05:59:56.665Z,94.39
2022-10-08T06:02:28.466Z,93.84
2022-10-08T06:05:00.363Z,93.75
2022-10-08T06:07:32.236Z,93.65
2022-10-08T06:10:04.846Z,93.46
2022-10-08T06:12:37.543Z,93.09
2022-10-08T06:15:10.591Z,94.04
2022-10-08T06:17:43.647Z,93.41
2022-10-08T06:20:16.125Z,93.11
2022-10-08T06:22:48.141Z,92.72
2022-10-08T06:25:20.738Z,92.76
2022-10-08T06:27:52.644Z,92.55
2022-10-08T06:30:24.615Z,92.38
2022-10-08T06:32:56.407Z,92.56
2022-10-08T06:35:28.149Z,92.59
2022-10-08T06:37:59.924Z,92.08
2022-10-08T06:40:39.023Z,91.91
2022-10-08T06:43:15.648Z,92.15
2022-10-08T06:45:48.691Z,91.90
2022-10-08T06:48:20.889Z,92.16
2022-10-08T06:51:01.093Z,92.31
2022-10-08T06:53:34.318Z,91.86
2022-10-08T06:56:10.765Z,91.93
2022-10-08T06:58:44.813Z,92.26
2022-10-08T07:01:19.926Z,91.97
2022-10-08T07:03:54.313Z,91.93
2022-10-08T07:06:27.444Z,92.07
2022-10-08T07:09:01.066Z,91.71
2022-10-08T07:11:35.083Z,91.54
2022-10-08T07:14:07.084Z,91.46
2022-10-08T07:16:38.939Z,91.36
2022-10-08T07:19:11.209Z,91.03
2022-10-08T07:21:43.227Z,90.74
2022-10-08T07:24:15.312Z,90.94
2022-10-08T07:26:48.609Z,90.94
2022-10-08T07:29:21.638Z,90.23
2022-10-08T07:31:53.975Z,89.76
2022-10-08T07:34:25.890Z,89.82
2022-10-08T07:36:57.661Z,90.50
2022-10-08T07:39:29.398Z,90.07
2022-10-08T07:42:01.300Z,89.51
2022-10-08T07:44:33.284Z,88.36
2022-10-08T07:47:05.106Z,87.87
2022-10-08T07:49:36.969Z,87.60
2022-10-08T07:52:09.221Z,86.94
2022-10-08T07:54:42.615Z,86.44
2022-10-08T07:57:14.232Z,85.69
2022-10-08T07:59:46.221Z,85.70
2022-10-08T08:02:18.357Z,84.98
2022-10-08T08:04:50.320Z,84.73
2022-10-08T08:07:22.133Z,84.31
2022-10-08T08:09:53.855Z,85.02
2022-10-08T08:12:26.113Z,85.14
2022-10-08T08:14:58.024Z,85.07
2022-10-08T08:17:29.706Z,85.82
2022-10-08T08:20:01.356Z,85.67
2022-10-08T08:22:33.033Z,85.48
2022-10-08T08:25:05.112Z,84.86
2022-10-08T08:27:37.464Z,84.47
2022-10-08T08:30:11.101Z,84.51
2022-10-08T08:32:43.415Z,84.03
2022-10-08T08:35:15.228Z,83.44
2022-10-08T08:37:46.748Z,82.80
2022-10-08T08:40:18.422Z,82.54
2022-10-08T08:42:54.874Z,82.63
2022-10-08T08:45:47.464Z,82.29
2022-10-08T08:48:23.878Z,81.80
2022-10-08T08:50:58.700Z,81.65
2022-10-08T08:53:30.847Z,81.22
2022-10-08T08:56:06.778Z,81.48
2022-10-08T08:58:43.641Z,81.40
2022-10-08T09:01:23.714Z,80.65
2022-10-08T09:03:59.896Z,80.01
2022-10-08T09:06:33.487Z,79.37
2022-10-08T09:09:16.663Z,79.67
2022-10-08T09:11:46.756Z,79.18
2022-10-08T09:14:34.212Z,78.88
2022-10-08T09:17:15.312Z,78.80
2022-10-08T09:19:49.715Z,78.59
2022-10-08T09:22:26.067Z,78.24
2022-10-08T09:25:01.822Z,78.33
2022-10-08T09:27:49.610Z,77.64
2022-10-08T09:30:45.206Z,77.77
2022-10-08T09:33:32.008Z,78.17
2022-10-08T09:36:04.285Z,77.74
2022-10-08T09:38:39.592Z,77.42
2022-10-08T09:41:20.756Z,77.19
2022-10-08T09:44:12.332Z,76.89
2022-10-08T09:46:44.707Z,76.31
2022-10-08T09:49:32.268Z,75.83
2022-10-08T09:52:08.403Z,75.13
2022-10-08T09:54:48.706Z,74.01
2022-10-08T09:57:22.791Z,71.15
2022-10-08T09:59:57.691Z,69.98
2022-10-08T10:02:34.207Z,69.13
2022-10-08T10:05:09.048Z,68.88
2022-10-08T10:07:43.956Z,68.30
2022-10-08T10:10:25.358Z,68.67
2022-10-08T10:13:02.110Z,68.49
2022-10-08T10:15:38.443Z,67.57
2022-10-08T10:18:16.061Z,66.99
2022-10-08T10:20:52.047Z,66.10
2022-10-08T10:23:27.110Z,64.11
2022-10-08T10:26:06.315Z,63.93
2022-10-08T10:28:46.107Z,64.19
2022-10-08T10:31:23.504Z,63.55
2022-10-08T10:34:00.304Z,62.98
2022-10-08T10:36:36.581Z,63.05
2022-10-08T10:39:19.845Z,63.11
2022-10-08T10:42:00.002Z,63.04
2022-10-08T10:44:38.336Z,63.28
2022-10-08T10:47:11.117Z,64.00
2022-10-08T10:49:44.806Z,63.97
2022-10-08T10:52:42.708Z,63.48
2022-10-08T10:55:28.629Z,62.70
2022-10-08T10:58:22.438Z,63.00
2022-10-08T11:01:03.641Z,63.17
2022-10-08T11:03:45.526Z,62.95
2022-10-08T11:06:48.789Z,62.87
2022-10-08T11:09:29.296Z,63.09
2022-10-08T11:12:07.601Z,63.20
2022-10-08T11:14:48.207Z,63.12
2022-10-08T11:17:36.048Z,62.22
2022-10-08T11:20:25.951Z,61.46
2022-10-08T11:23:04.324Z,62.02
2022-10-08T11:26:10.831Z,61.77
2022-10-08T11:28:49.337Z,61.38
2022-10-08T11:31:29.655Z,61.58
2022-10-08T11:34:03.614Z,61.71
2022-10-08T11:36:48.259Z,61.88
2022-10-08T11:39:28.983Z,61.77
2022-10-08T11:42:10.845Z,61.89
2022-10-08T11:44:43.153Z,61.55
2022-10-08T11:47:48.360Z,61.24
2022-10-08T11:50:29.461Z,60.85
2022-10-08T11:53:14.903Z,61.72
2022-10-08T11:55:54.632Z,61.98
2022-10-08T11:58:31.300Z,61.87
2022-10-08T12:01:08.447Z,61.79
2022-10-08T12:03:46.211Z,62.57
2022-10-08T12:06:20.276Z,62.63
2022-10-08T12:08:55.006Z,62.97
2022-10-08T12:11:51.488Z,63.43
2022-10-08T12:14:45.601Z,63.34
2022-10-08T12:17:18.050Z,62.91
2022-10-08T12:20:21.729Z,62.65
2022-10-08T12:23:07.702Z,62.41
2022-10-08T12:26:03.414Z,62.34
2022-10-08T12:28:50.364Z,62.33
2022-10-08T12:31:28.858Z,62.13
2022-10-08T12:34:14.202Z,62.06
2022-10-08T12:37:06.941Z,62.18
2022-10-08T12:39:45.644Z,62.44
2022-10-08T12:42:23.787Z,62.31
2022-10-08T12:45:09.760Z,62.29
2022-10-08T12:47:50.417Z,61.91
2022-10-08T12:50:36.080Z,61.51
2022-10-08T12:53:09.224Z,61.64
2022-10-08T12:55:49.908Z,61.81
2022-10-08T12:58:25.916Z,61.94
2022-10-08T13:01:01.694Z,62.14
2022-10-08T13:03:33.582Z,62.48
2022-10-08T13:06:31.599Z,62.27
2022-10-08T13:09:20.572Z,62.52
2022-10-08T13:11:56.267Z,62.46
2022-10-08T13:14:31.450Z,62.79
2022-10-08T13:17:06.828Z,63.13
2022-10-08T13:19:40.779Z,62.83
2022-10-08T13:22:27.500Z,62.62
2022-10-08T13:24:59.191Z,62.12
2022-10-08T13:27:32.918Z,62.42
2022-10-08T13:30:30.088Z,62.39
2022-10-08T13:33:07.338Z,62.43
2022-10-08T13:35:39.454Z,62.17
2022-10-08T13:38:20.366Z,62.05
2022-10-08T13:40:55.361Z,61.86
2022-10-08T13:43:28.990Z,61.33
2022-10-08T13:46:00.803Z,60.81
2022-10-08T13:48:32.610Z,61.07
2022-10-08T13:51:06.514Z,61.10
2022-10-08T13:53:42.224Z,61.46
2022-10-08T13:56:15.441Z,61.30
2022-10-08T13:58:47.203Z,61.06
2022-10-08T14:01:19.022Z,60.72
2022-10-08T14:03:50.685Z,60.78
2022-10-08T14:06:22.385Z,60.66
2022-10-08T14:08:54.497Z,60.08
2022-10-08T14:11:27.022Z,59.43
2022-10-08T14:13:58.796Z,59.40
2022-10-08T14:16:30.768Z,59.50
2022-10-08T14:19:04.361Z,59.03
2022-10-08T14:21:38.487Z,58.77
2022-10-08T14:24:09.258Z,58.72
2022-10-08T14:26:41.232Z,58.96
2022-10-08T14:29:14.049Z,59.28
2022-10-08T14:31:44.855Z,58.60
2022-10-08T14:34:17.481Z,57.94
2022-10-08T14:36:50.150Z,57.62
2022-10-08T14:39:20.680Z,57.70
2022-10-08T14:41:52.613Z,58.21
2022-10-08T14:44:25.269Z,58.52
2022-10-08T14:46:56.919Z,58.27
2022-10-08T14:49:29.007Z,59.00
2022-10-08T14:52:01.533Z,59.13
2022-10-08T14:54:33.161Z,59.17
2022-10-08T14:57:05.152Z,59.18
2022-10-08T14:59:40.033Z,58.33
2022-10-08T15:02:13.569Z,58.20
2022-10-08T15:04:45.358Z,58.26
2022-10-08T15:07:17.126Z,58.26
2022-10-08T15:09:48.853Z,58.74
2022-10-08T15:12:20.460Z,58.98
2022-10-08T15:14:52.436Z,58.83
2022-10-08T15:17:24.315Z,59.04
2022-10-08T15:19:57.714Z,59.25
2022-10-08T15:22:29.424Z,59.41
2022-10-08T15:25:01.111Z,59.61
2022-10-08T15:27:33.403Z,59.94
2022-10-08T15:30:05.634Z,59.73
2022-10-08T15:32:39.180Z,59.83
2022-10-08T15:35:11.912Z,60.08
2022-10-08T15:37:44.082Z,60.14
2022-10-08T15:40:16.678Z,60.65
2022-10-08T15:42:52.079Z,60.46
2022-10-08T15:45:24.315Z,60.49
2022-10-08T15:47:56.061Z,60.37
2022-10-08T15:50:27.853Z,60.36
2022-10-08T15:53:01.052Z,60.51
2022-10-08T15:55:32.742Z,60.65
2022-10-08T15:58:04.519Z,60.86
2022-10-08T16:00:38.184Z,61.24
2022-10-08T16:03:10.016Z,63.23
2022-10-08T16:05:41.976Z,70.83
2022-10-08T16:08:13.673Z,75.83
2022-10-08T16:10:45.509Z,79.13
2022-10-08T16:13:17.391Z,81.33
2022-10-08T16:15:49.098Z,83.35
2022-10-08T16:18:21.521Z,84.69
2022-10-08T16:20:55.115Z,85.16
2022-10-08T16:23:26.935Z,84.92
2022-10-08T16:25:59.770Z,85.92
2022-10-08T16:28:34.189Z,85.67
2022-10-08T16:31:07.094Z,85.20
2022-10-08T16:33:39.464Z,85.04
2022-10-08T16:36:12.940Z,85.08
2022-10-08T16:38:45.120Z,85.55
2022-10-08T16:41:19.378Z,86.95
2022-10-08T16:43:53.289Z,89.25
2022-10-08T16:46:27.695Z,90.29
2022-10-08T16:49:01.702Z,90.92
2022-10-08T16:51:35.534Z,91.82
2022-10-08T16:54:10.251Z,92.12
2022-10-08T16:56:44.573Z,92.19
2022-10-08T16:59:19.390Z,92.43
2022-10-08T17:01:54.408Z,92.75
2022-10-08T17:04:29.216Z,92.92
2022-10-08T17:07:03.977Z,93.42
2022-10-08T17:09:36.077Z,93.24
2022-10-08T17:12:07.812Z,93.31
2022-10-08T17:14:39.724Z,93.49
2022-10-08T17:17:11.912Z,93.64
2022-10-08T17:19:44.770Z,93.49
2022-10-08T17:22:16.804Z,93.96
2022-10-08T17:24:49.162Z,94.93
2022-10-08T17:27:21.017Z,95.11
2022-10-08T17:29:52.833Z,96.39
2022-10-08T17:32:24.485Z,96.29
2022-10-08T17:34:56.141Z,96.01
2022-10-08T17:37:27.771Z,96.44
2022-10-08T17:39:59.572Z,95.93
2022-10-08T17:42:32.012Z,96.03
2022-10-08T17:45:03.631Z,96.06
2022-10-08T17:47:35.682Z,95.61
2022-10-08T17:50:09.199Z,94.86
2022-10-08T17:52:40.994Z,95.02
2022-10-08T17:55:16.902Z,94.82
2022-10-08T17:57:48.894Z,95.01
2022-10-08T18:00:20.978Z,95.10
2022-10-08T18:02:53.261Z,94.85
2022-10-08T18:05:25.149Z,95.53
2022-10-08T18:07:57.005Z,96.24
2022-10-08T18:10:28.922Z,96.33
2022-10-08T18:13:02.230Z,95.60
2022-10-08T18:15:37.326Z,95.43
2022-10-08T18:18:09.117Z,96.06
2022-10-08T18:20:41.585Z,96.85
2022-10-08T18:23:13.552Z,96.72
2022-10-08T18:25:45.242Z,97.05
2022-10-08T18:28:19.667Z,96.61
2022-10-08T18:30:51.532Z,96.52
2022-10-08T18:33:24.798Z,96.37
2022-10-08T18:35:56.780Z,96.86
2022-10-08T18:38:28.622Z,96.21
2022-10-08T18:41:00.330Z,96.21
2022-10-08T18:43:32.189Z,96.79
2022-10-08T18:46:06.398Z,96.74
2022-10-08T18:48:38.965Z,96.78
2022-10-08T18:51:13.565Z,96.92
2022-10-08T18:53:46.322Z,96.83
2022-10-08T18:56:19.067Z,97.41
2022-10-08T18:58:53.196Z,97.47
2022-10-08T19:01:28.397Z,97.26
2022-10-08T19:04:03.851Z,96.76
2022-10-08T19:06:38.021Z,96.75
2022-10-08T19:09:10.489Z,96.05
2022-10-08T19:11:45.380Z,96.24
2022-10-08T19:14:19.229Z,96.50
2022-10-08T19:16:51.619Z,96.33
2022-10-08T19:19:27.432Z,96.35
2022-10-08T19:22:01.716Z,96.39
2022-10-08T19:24:37.319Z,96.64
2022-10-08T19:27:11.937Z,96.84
2022-10-08T19:29:43.800Z,96.98
2022-10-08T19:32:16.052Z,97.16
2022-10-08T19:34:47.789Z,96.86
2022-10-08T19:37:19.795Z,97.19
2022-10-08T19:39:52.906Z,96.16
2022-10-08T19:42:24.661Z,95.32
2022-10-08T19:44:56.360Z,94.40
2022-10-08T19:47:28.135Z,94.30
2022-10-08T19:49:59.803Z,93.50
2022-10-08T19:52:31.918Z,93.15
2022-10-08T19:55:03.862Z,92.90
2022-10-08T19:57:36.600Z,92.38
2022-10-08T20:00:08.393Z,92.06
2022-10-08T20:02:40.437Z,91.88
2022-10-08T20:05:12.916Z,91.03
2022-10-08T20:07:45.767Z,90.39
2022-10-08T20:10:18.819Z,90.09
2022-10-08T20:12:51.722Z,89.34
2022-10-08T20:15:24.974Z,89.21
2022-10-08T20:17:57.694Z,88.66
2022-10-08T20:20:33.190Z,87.85
2022-10-08T20:23:07.205Z,87.22
2022-10-08T20:25:38.925Z,86.82
2022-10-08T20:28:10.989Z,86.37
2022-10-08T20:30:43.721Z,86.22
2022-10-08T20:33:14.613Z,85.73
2022-10-08T20:35:46.782Z,85.40
2022-10-08T20:38:19.209Z,85.33
2022-10-08T20:40:56.274Z,85.28
2022-10-08T20:43:30.708Z,85.29
2022-10-08T20:46:06.663Z,85.96
2022-10-08T20:48:40.674Z,86.10
2022-10-08T20:51:15.572Z,86.51
2022-10-08T20:53:52.114Z,86.92
2022-10-08T20:56:25.207Z,88.32
2022-10-08T20:58:58.218Z,89.06
2022-10-08T21:01:29.773Z,91.19
2022-10-08T21:04:03.326Z,92.64
2022-10-08T21:06:41.735Z,94.25
2022-10-08T21:09:15.261Z,94.65
2022-10-08T21:11:49.277Z,94.84
2022-10-08T21:14:24.128Z,96.09
2022-10-08T21:16:57.147Z,96.72
2022-10-08T21:19:29.611Z,96.63
2022-10-08T21:22:01.950Z,96.99
2022-10-08T21:24:33.017Z,96.73
2022-10-08T21:27:06.706Z,96.84
2022-10-08T21:29:40.215Z,96.52
2022-10-08T21:32:13.737Z,95.70
2022-10-08T21:34:46.443Z,95.53
2022-10-08T21:37:18.828Z,95.53
2022-10-08T21:39:52.250Z,94.95
2022-10-08T21:42:24.378Z,94.02
2022-10-08T21:44:56.257Z,92.94
2022-10-08T21:47:28.841Z,92.70
2022-10-08T21:50:00.996Z,92.33
2022-10-08T21:52:33.105Z,91.67
2022-10-08T21:55:05.318Z,90.52
2022-10-08T21:57:38.376Z,90.70
2022-10-08T22:00:14.669Z,90.55
2022-10-08T22:02:47.401Z,90.15
2022-10-08T22:05:21.025Z,89.44
2022-10-08T22:07:53.527Z,89.16
2022-10-08T22:10:25.687Z,88.24
2022-10-08T22:12:57.611Z,87.85
2022-10-08T22:15:29.387Z,87.49
2022-10-08T22:18:01.149Z,87.44
2022-10-08T22:20:33.035Z,87.27
2022-10-08T22:23:04.708Z,87.63
2022-10-08T22:25:36.857Z,87.82
2022-10-08T22:28:09.115Z,87.52
2022-10-08T22:30:40.821Z,87.55
2022-10-08T22:33:12.453Z,87.70
2022-10-08T22:35:44.500Z,87.55
2022-10-08T22:38:16.380Z,87.48
2022-10-08T22:40:48.177Z,87.77
2022-10-08T22:43:19.948Z,87.92
2022-10-08T22:45:51.716Z,87.80
2022-10-08T22:48:24.233Z,88.18
2022-10-08T22:50:55.931Z,88.27
2022-10-08T22:53:27.670Z,88.36
2022-10-08T22:55:59.670Z,88.40
2022-10-08T22:58:31.987Z,88.73
2022-10-08T23:01:06.510Z,88.25
2022-10-08T23:03:38.525Z,88.52
2022-10-08T23:06:15.408Z,88.91
2022-10-08T23:08:48.575Z,89.27
2022-10-08T23:11:20.596Z,89.50
2022-10-08T23:13:57.804Z,89.70
2022-10-08T23:16:31.996Z,89.74
2022-10-08T23:19:06.104Z,89.76
2022-10-08T23:21:42.496Z,89.95
2022-10-08T23:24:16.217Z,89.74
2022-10-08T23:26:48.213Z,90.29
2022-10-08T23:29:20.270Z,90.25
2022-10-08T23:31:52.418Z,90.63
2022-10-08T23:34:25.535Z,90.38
2022-10-08T23:36:57.409Z,90.80
2022-10-08T23:39:29.751Z,90.84
2022-10-08T23:42:02.944Z,91.15
2022-10-08T23:44:36.041Z,91.25
2022-10-08T23:47:13.920Z,90.40
2022-10-08T23:49:46.484Z,90.38
2022-10-08T23:52:19.609Z,90.16
2022-10-08T23:54:51.269Z,90.26
2022-10-08T23:57:23.016Z,90.99
2022-10-08T23:59:57.076Z,90.78
